Time;durP1;ratioP1;P1;durP2;ratioP2;P2;SDS_P1;SDS_P2;PMS_P1;PMS_P2;Temp;Humidity;BMP_temperature;BMP_pressure;BME280_temperature;BME280_humidity;BME280_pressure;Samples;Min_cycle;Max_cycle;Signal;HPM_P1;HPM_P2
2022/04/25 00:02:09;;;;;;;;;;;;;;;;;;5073083;28;881;-71
2022/04/25 00:04:36;;;;;;;;;;;;;;;;;;5072530;28;1018;-70
2022/04/25 00:07:03;;;;;;;;;;;;;;;;;;5071934;28;1963;-71
2022/04/25 00:09:30;;;;;;;;;;;;;;;;;;5072464;28;1289;-70
2022/04/25 00:11:56;;;;;;;;;;;;;;;;;;5072214;28;1108;-70
2022/04/25 00:14:22;;;;;;;;;;;;;;;;;;5072527;28;873;-70
2022/04/25 00:16:49;;;;;;;;;;;;;;;;;;5072047;28;1079;-70
2022/04/25 00:19:16;;;;;;;;;;;;;;;;;;5072517;28;774;-71
2022/04/25 00:21:42;;;;;;;;;;;;;;;;;;5072280;28;1528;-70
2022/04/25 00:24:10;;;;;;;;;;;;;;;;;;5072335;28;1087;-70
2022/04/25 00:26:36;;;;;;;;;;;;;;;;;;5074295;28;1135;-70
2022/04/25 00:29:02;;;;;;;;;;;;;;;;;;5075674;28;1953;-70
2022/04/25 00:31:28;;;;;;;;;;;;;;;;;;5073762;28;1339;-70
2022/04/25 00:33:54;;;;;;;;;;;;;;;;;;5073372;28;1032;-71
2022/04/25 00:36:21;;;;;;;;;;;;;;;;;;5071845;28;811;-71
2022/04/25 00:38:47;;;;;;;;;;;;;;;;;;5070931;28;1142;-70
2022/04/25 00:41:14;;;;;;;;;;;;;;;;;;5071537;28;1361;-70
2022/04/25 00:43:41;;;;;;;;;;;;;;;;;;5072088;28;634;-70
2022/04/25 00:46:07;;;;;;;;;;;;;;;;;;5071743;28;1126;-71
2022/04/25 00:48:33;;;;;;;;;;;;;;;;;;5072117;28;1976;-70
2022/04/25 00:50:59;;;;;;;;;;;;;;;;;;5071369;28;1273;-70
2022/04/25 00:53:25;;;;;;;;;;;;;;;;;;5070667;28;1426;-70
2022/04/25 00:55:52;;;;;;;;;;;;;;;;;;5071802;28;969;-71
2022/04/25 00:58:19;;;;;;;;;;;;;;;;;;5071714;28;791;-70
2022/04/25 01:00:46;;;;;;;;;;;;;;;;;;5071040;28;1491;-71
2022/04/25 01:03:13;;;;;;;;;;;;;;;;;;5070221;28;1143;-71
2022/04/25 01:05:39;;;;;;;;;;;;;;;;;;5072073;28;1109;-70
2022/04/25 01:08:07;;;;;;;;;;;;;;;;;;5070002;28;1980;-71
2022/04/25 01:10:33;;;;;;;;;;;;;;;;;;5071196;28;1340;-71
2022/04/25 01:12:59;;;;;;;;;;;;;;;;;;5071252;28;630;-71
2022/04/25 01:15:28;;;;;;;;;;;;;;;;;;5071449;28;937;-70
2022/04/25 01:17:54;;;;;;;;;;;;;;;;;;5070918;28;908;-71
2022/04/25 01:20:21;;;;;;;;;;;;;;;;;;5070993;28;1352;-71
2022/04/25 01:22:48;;;;;;;;;;;;;;;;;;5071375;28;996;-70
2022/04/25 01:28:01;;;;;;;;;;;;;;;;;;5071131;28;1922;-71
2022/04/25 01:30:28;;;;;;;;;;;;;;;;;;5069392;28;2052;-69
2022/04/25 01:32:54;;;;;;;;;;;;;;;;;;5067027;28;1286;-70
2022/04/25 01:35:20;;;;;;;;;;;;;;;;;;5071257;28;1154;-70
2022/04/25 01:37:47;;;;;;;;;;;;;;;;;;5070968;28;1146;-70
2022/04/25 01:40:13;;;;;;;;;;;;;;;;;;5071111;28;1298;-70
2022/04/25 01:42:42;;;;;;;;;;;;;;;;;;5070940;28;874;-70
2022/04/25 01:45:08;;;;;;;;;;;;;;;;;;5071452;28;1098;-70
2022/04/25 01:47:34;;;;;;;;;;;;;;;;;;5069602;28;1959;-71
2022/04/25 01:50:01;;;;;;;;;;;;;;;;;;5071795;28;1311;-70
2022/04/25 01:52:28;;;;;;;;;;;;;;;;;;5073055;28;1047;-71
2022/04/25 01:54:54;;;;;;;;;;;;;;;;;;5072636;28;1112;-70
2022/04/25 01:57:21;;;;;;;;;;;;;;;;;;5070903;28;885;-69
2022/04/25 01:59:48;;;;;;;;;;;;;;;;;;5071500;28;1314;-71
2022/04/25 02:02:15;;;;;;;;;;;;;;;;;;5070171;28;1159;-70
2022/04/25 02:04:41;;;;;;;;;;;;;;;;;;5073593;28;1146;-71
2022/04/25 02:07:08;;;;;;;;;;;;;;;;;;5073061;28;1098;-70
2022/04/25 02:09:34;;;;;;;;;;;;;;;;;;5071142;28;1914;-70
2022/04/25 02:12:01;;;;;;;;;;;;;;;;;;5070544;28;1080;-69
2022/04/25 02:14:28;;;;;;;;;;;;;;;;;;5070930;28;877;-70
2022/04/25 02:16:57;;;;;;;;;;;;;;;;;;5073947;28;1056;-70
2022/04/25 02:19:23;;;;;;;;;;;;;;;;;;5073994;28;1290;-68
2022/04/25 02:21:50;;;;;;;;;;;;;;;;;;5073584;28;906;-70
2022/04/25 02:24:16;;;;;;;;;;;;;;;;;;5086441;22;1968;-68
2022/04/25 02:26:42;;;;;;;;;;;;;;;;;;5071541;28;1057;-68
2022/04/25 02:29:08;;;;;;;;;;;;;;;;;;5072339;28;1922;-69
2022/04/25 02:31:35;;;;;;;;;;;;;;;;;;5071935;28;1083;-69
2022/04/25 02:34:02;;;;;;;;;;;;;;;;;;5072767;28;1389;-71
2022/04/25 02:36:28;;;;;;;;;;;;;;;;;;5071982;28;1063;-71
2022/04/25 02:38:54;;;;;;;;;;;;;;;;;;5072611;28;914;-70
2022/04/25 02:41:21;;;;;;;;;;;;;;;;;;5072826;28;885;-71
2022/04/25 02:43:47;;;;;;;;;;;;;;;;;;5072654;28;1290;-70
2022/04/25 02:46:14;;;;;;;;;;;;;;;;;;5071897;28;677;-69
2022/04/25 02:48:41;;;;;;;;;;;;;;;;;;5072325;28;1969;-69
2022/04/25 02:51:09;;;;;;;;;;;;;;;;;;5072408;28;1119;-68
2022/04/25 02:53:35;;;;;;;;;;;;;;;;;;5054443;28;1363;-69
2022/04/25 02:56:02;;;;;;;;;;;;;;;;;;5072639;28;726;-68
2022/04/25 02:58:29;;;;;;;;;;;;;;;;;;5072231;28;988;-71
2022/04/25 03:00:55;;;;;;;;;;;;;;;;;;5072397;28;1008;-70
2022/04/25 03:03:22;;;;;;;;;;;;;;;;;;5072118;28;1272;-69
2022/04/25 03:05:49;;;;;;;;;;;;;;;;;;5072044;28;873;-68
2022/04/25 03:08:17;;;;;;;;;;;;;;;;;;5059876;28;1910;-69
2022/04/25 03:10:43;;;;;;;;;;;;;;;;;;5032480;28;1131;-68
2022/04/25 03:13:10;;;;;;;;;;;;;;;;;;5032260;28;1342;-69
2022/04/25 03:15:38;;;;;;;;;;;;;;;;;;5031278;28;1068;-69
2022/04/25 03:18:04;;;;;;;;;;;;;;;;;;5031760;28;1515;-69
2022/04/25 03:20:31;;;;;;;;;;;;;;;;;;5031952;28;950;-70
2022/04/25 03:22:58;;;;;;;;;;;;;;;;;;5031735;28;1341;-70
2022/04/25 03:25:25;;;;;;;;;;;;;;;;;;5031548;28;838;-69
2022/04/25 03:27:51;;;;;;;;;;;;;;;;;;5031051;28;1918;-69
2022/04/25 03:30:18;;;;;;;;;;;;;;;;;;5031973;28;779;-69
2022/04/25 03:32:46;;;;;;;;;;;;;;;;;;5031754;28;1455;-69
2022/04/25 03:35:12;;;;;;;;;;;;;;;;;;5031872;28;925;-69
2022/04/25 03:37:38;;;;;;;;;;;;;;;;;;5031321;28;898;-69
2022/04/25 03:40:05;;;;;;;;;;;;;;;;;;5031777;28;823;-69
2022/04/25 03:42:34;;;;;;;;;;;;;;;;;;5030828;28;1323;-70
2022/04/25 03:45:00;;;;;;;;;;;;;;;;;;5031444;28;866;-70
2022/04/25 03:47:26;;;;;;;;;;;;;;;;;;5031330;28;1060;-69
2022/04/25 03:49:53;;;;;;;;;;;;;;;;;;5031343;28;1968;-70
2022/04/25 03:52:19;;;;;;;;;;;;;;;;;;5031385;28;921;-70
2022/04/25 03:57:29;;;;;;;;;;;;;;;;;;5013397;28;997;-70
2022/04/25 03:59:57;;;;;;;;;;;;;;;;;;5031115;28;921;-70
2022/04/25 04:02:23;;;;;;;;;;;;;;;;;;5030720;28;1064;-70
2022/04/25 04:04:49;;;;;;;;;;;;;;;;;;5031146;28;1157;-71
2022/04/25 04:07:16;;;;;;;;;;;;;;;;;;5030721;28;878;-70
2022/04/25 04:09:49;;;;;;;;;;;;;;;;;;5031040;28;1973;-71
2022/04/25 04:12:15;;;;;;;;;;;;;;;;;;5031112;28;1052;-71
2022/04/25 04:14:41;;;;;;;;;;;;;;;;;;5030461;28;1307;-70
2022/04/25 04:17:09;;;;;;;;;;;;;;;;;;5030740;28;878;-69
2022/04/25 04:19:36;;;;;;;;;;;;;;;;;;5030820;28;772;-70
2022/04/25 04:22:03;;;;;;;;;;;;;;;;;;5030637;28;845;-70
2022/04/25 04:24:29;;;;;;;;;;;;;;;;;;5030782;28;1340;-71
2022/04/25 04:26:56;;;;;;;;;;;;;;;;;;5024141;28;1506;-70
2022/04/25 04:29:22;;;;;;;;;;;;;;;;;;5065952;28;1906;-70
2022/04/25 04:31:49;;;;;;;;;;;;;;;;;;5059578;28;1063;-69
2022/04/25 04:34:16;;;;;;;;;;;;;;;;;;5032701;28;1317;-69
2022/04/25 04:36:42;;;;;;;;;;;;;;;;;;5056960;28;1495;-69
2022/04/25 04:39:08;;;;;;;;;;;;;;;;;;5061453;28;1275;-70
2022/04/25 04:41:35;;;;;;;;;;;;;;;;;;5060614;28;1428;-70
2022/04/25 04:44:01;;;;;;;;;;;;;;;;;;5049965;28;1721;-68
2022/04/25 04:46:27;;;;;;;;;;;;;;;;;;5029351;28;2010;-69
2022/04/25 04:48:53;;;;;;;;;;;;;;;;;;5049203;28;1977;-69
2022/04/25 04:51:21;;;;;;;;;;;;;;;;;;5063378;28;1141;-70
2022/04/25 04:53:47;;;;;;;;;;;;;;;;;;5070789;28;1311;-71
2022/04/25 04:56:13;;;;;;;;;;;;;;;;;;5074523;28;940;-70
2022/04/25 04:58:39;;;;;;;;;;;;;;;;;;5078472;28;1063;-72
2022/04/25 05:01:06;;;;;;;;;;;;;;;;;;5074264;28;949;-72
2022/04/25 05:03:32;;;;;;;;;;;;;;;;;;5070202;28;1385;-70
2022/04/25 05:05:58;;;;;;;;;;;;;;;;;;5070126;28;794;-69
2022/04/25 05:08:26;;;;;;;;;;;;;;;;;;5070345;28;1952;-69
2022/04/25 05:10:54;;;;;;;;;;;;;;;;;;5070192;28;1111;-70
2022/04/25 05:13:20;;;;;;;;;;;;;;;;;;5069765;28;1450;-70
2022/04/25 05:15:47;;;;;;;;;;;;;;;;;;5032375;28;1520;-70
2022/04/25 05:18:13;;;;;;;;;;;;;;;;;;5029789;28;1103;-69
2022/04/25 05:20:39;;;;;;;;;;;;;;;;;;5030257;28;1135;-69
2022/04/25 05:23:06;;;;;;;;;;;;;;;;;;5030417;28;1412;-70
2022/04/25 05:25:35;;;;;;;;;;;;;;;;;;5029977;28;1390;-70
2022/04/25 05:28:02;;;;;;;;;;;;;;;;;;5029493;28;1056;-70
2022/04/25 05:30:28;;;;;;;;;;;;;;;;;;5029891;28;1918;-70
2022/04/25 05:32:55;;;;;;;;;;;;;;;;;;5029491;28;1290;-70
2022/04/25 05:35:21;;;;;;;;;;;;;;;;;;5030043;28;786;-70
2022/04/25 05:37:48;;;;;;;;;;;;;;;;;;5039450;28;1632;-68
2022/04/25 05:40:14;;;;;;;;;;;;;;;;;;5036269;28;1067;-68
2022/04/25 05:42:42;;;;;;;;;;;;;;;;;;5037288;28;1376;-70
2022/04/25 05:45:08;;;;;;;;;;;;;;;;;;5051367;28;1366;-69
2022/04/25 05:47:34;;;;;;;;;;;;;;;;;;5054502;28;1462;-70
2022/04/25 05:52:45;;;;;;;;;;;;;;;;;;5050620;28;1414;-67
2022/04/25 05:55:11;;;;;;;;;;;;;;;;;;5064231;28;1174;-69
2022/04/25 05:57:37;;;;;;;;;;;;;;;;;;5072447;28;1108;-68
2022/04/25 06:00:07;;;;;;;;;;;;;;;;;;5055316;28;1404;-68
2022/04/25 06:02:39;;;;;;;;;;;;;;;;;;5059724;28;1458;-69
2022/04/25 06:05:06;;;;;;;;;;;;;;;;;;5068879;28;1379;-69
2022/04/25 06:07:33;;;;;;;;;;;;;;;;;;5050437;28;1131;-69
2022/04/25 06:10:00;;;;;;;;;;;;;;;;;;5042970;28;1922;-68
2022/04/25 06:12:26;;;;;;;;;;;;;;;;;;5046624;28;2627;-67
2022/04/25 06:14:53;;;;;;;;;;;;;;;;;;5063094;28;1124;-69
2022/04/25 06:17:20;;;;;;;;;;;;;;;;;;5061023;28;1420;-69
2022/04/25 06:19:47;;;;;;;;;;;;;;;;;;5060834;28;1581;-69
2022/04/25 06:22:13;;;;;;;;;;;;;;;;;;5050065;28;1220;-67
2022/04/25 06:24:40;;;;;;;;;;;;;;;;;;5041476;28;1525;-67
2022/04/25 06:27:09;;;;;;;;;;;;;;;;;;5053792;28;1373;-68
2022/04/25 06:29:35;;;;;;;;;;;;;;;;;;5051966;28;1965;-69
2022/04/25 06:32:05;;;;;;;;;;;;;;;;;;5059324;28;1352;-68
2022/04/25 06:34:32;;;;;;;;;;;;;;;;;;5059734;28;1384;-67
2022/04/25 06:36:58;;;;;;;;;;;;;;;;;;5060055;28;1392;-69
2022/04/25 06:39:25;;;;;;;;;;;;;;;;;;5046746;28;1598;-68
2022/04/25 06:41:51;;;;;;;;;;;;;;;;;;5054018;28;960;-69
2022/04/25 06:44:17;;;;;;;;;;;;;;;;;;5047695;28;1372;-69
2022/04/25 06:46:44;;;;;;;;;;;;;;;;;;5050699;28;1396;-69
2022/04/25 06:49:23;;;;;;;;;;;;;;;;;;5045189;28;1977;-68
2022/04/25 06:51:51;;;;;;;;;;;;;;;;;;5060135;28;1396;-70
2022/04/25 06:54:17;;;;;;;;;;;;;;;;;;5057969;28;1479;-68
2022/04/25 06:56:44;;;;;;;;;;;;;;;;;;5059562;28;1146;-68
2022/04/25 06:59:10;;;;;;;;;;;;;;;;;;5066330;28;1356;-70
2022/04/25 07:01:36;;;;;;;;;;;;;;;;;;5056743;28;1404;-69
2022/04/25 07:04:03;;;;;;;;;;;;;;;;;;5050136;28;1412;-69
2022/04/25 07:06:29;;;;;;;;;;;;;;;;;;5057564;28;1591;-68
2022/04/25 07:08:56;;;;;;;;;;;;;;;;;;5059820;28;1977;-69
2022/04/25 07:11:23;;;;;;;;;;;;;;;;;;5071592;28;953;-69
2022/04/25 07:13:49;;;;;;;;;;;;;;;;;;5049664;28;1443;-69
2022/04/25 07:16:15;;;;;;;;;;;;;;;;;;5049506;28;1554;-69
2022/04/25 07:18:42;;;;;;;;;;;;;;;;;;5058206;28;1815;-70
2022/04/25 07:28:48;;;;;;;;;;;;;;;;;;5046413;28;1796;-69
2022/04/25 07:29:24;;;;;;;;;;;;;;;;;;5056437;28;1918;-70
2022/04/25 07:31:50;;;;;;;;;;;;;;;;;;5060393;28;2056;-69
2022/04/25 07:34:17;;;;;;;;;;;;;;;;;;5051271;28;2036;-70
2022/04/25 07:36:43;;;;;;;;;;;;;;;;;;5055580;28;1456;-69
2022/04/25 07:39:10;;;;;;;;;;;;;;;;;;5058534;28;1216;-69
2022/04/25 07:41:36;;;;;;;;;;;;;;;;;;5058399;28;1377;-69
2022/04/25 07:44:03;;;;;;;;;;;;;;;;;;5069316;28;1297;-69
2022/04/25 07:46:29;;;;;;;;;;;;;;;;;;5057068;28;1432;-69
2022/04/25 07:48:55;;;;;;;;;;;;;;;;;;5068143;28;1177;-69
2022/04/25 07:51:21;;;;;;;;;;;;;;;;;;5053497;28;1979;-69
2022/04/25 07:53:48;;;;;;;;;;;;;;;;;;5059788;28;1361;-68
2022/04/25 07:56:15;;;;;;;;;;;;;;;;;;5070244;28;818;-70
2022/04/25 07:58:41;;;;;;;;;;;;;;;;;;5047998;28;1578;-68
2022/04/25 08:01:08;;;;;;;;;;;;;;;;;;5057214;28;1145;-68
2022/04/25 08:03:35;;;;;;;;;;;;;;;;;;5043841;28;1625;-69
2022/04/25 08:06:01;;;;;;;;;;;;;;;;;;5042588;28;1189;-69
2022/04/25 08:08:27;;;;;;;;;;;;;;;;;;5048146;28;1306;-69
2022/04/25 08:10:53;;;;;;;;;;;;;;;;;;5054199;28;1978;-70
2022/04/25 08:18:51;;;;;;;;;;;;;;;;;;5049813;28;1783;-68
2022/04/25 08:21:17;;;;;;;;;;;;;;;;;;5049778;28;1817;-68
2022/04/25 08:23:45;;;;;;;;;;;;;;;;;;5057184;28;1839;-69
2022/04/25 08:26:11;;;;;;;;;;;;;;;;;;5060686;28;1553;-70
2022/04/25 08:28:40;;;;;;;;;;;;;;;;;;5060537;28;1764;-68
2022/04/25 08:31:09;;;;;;;;;;;;;;;;;;5050563;28;1954;-69
2022/04/25 08:33:35;;;;;;;;;;;;;;;;;;5036697;28;1444;-69
2022/04/25 08:36:03;;;;;;;;;;;;;;;;;;5044786;28;1824;-69
2022/04/25 08:38:29;;;;;;;;;;;;;;;;;;5056600;28;1835;-69
2022/04/25 08:40:55;;;;;;;;;;;;;;;;;;5056565;28;1936;-69
2022/04/25 08:43:22;;;;;;;;;;;;;;;;;;5053969;28;1562;-70
2022/04/25 08:45:49;;;;;;;;;;;;;;;;;;5061322;28;1048;-69
2022/04/25 08:48:15;;;;;;;;;;;;;;;;;;5059568;28;1774;-68
2022/04/25 08:50:41;;;;;;;;;;;;;;;;;;5052061;28;1914;-67
2022/04/25 08:53:08;;;;;;;;;;;;;;;;;;5059902;28;1417;-69
2022/04/25 08:55:34;;;;;;;;;;;;;;;;;;5063341;28;1756;-70
2022/04/25 08:58:00;;;;;;;;;;;;;;;;;;5058273;28;1127;-68
2022/04/25 09:00:27;;;;;;;;;;;;;;;;;;5057281;28;1795;-69
2022/04/25 09:02:54;;;;;;;;;;;;;;;;;;5066312;28;1338;-69
2022/04/25 09:05:21;;;;;;;;;;;;;;;;;;5061855;28;1482;-68
2022/04/25 09:07:47;;;;;;;;;;;;;;;;;;5049328;28;1637;-68
2022/04/25 09:10:14;;;;;;;;;;;;;;;;;;5049081;28;1992;-68
2022/04/25 09:12:42;;;;;;;;;;;;;;;;;;5054334;28;1497;-68
2022/04/25 09:15:09;;;;;;;;;;;;;;;;;;5065140;28;1189;-68
2022/04/25 09:17:37;;;;;;;;;;;;;;;;;;5048983;28;1173;-68
2022/04/25 09:20:05;;;;;;;;;;;;;;;;;;5030585;28;1320;-69
2022/04/25 09:22:32;;;;;;;;;;;;;;;;;;5040979;28;1685;-69
2022/04/25 09:25:03;;;;;;;;;;;;;;;;;;5060962;28;1579;-69
2022/04/25 09:27:30;;;;;;;;;;;;;;;;;;5051599;28;1460;-68
2022/04/25 09:29:56;;;;;;;;;;;;;;;;;;5046946;28;1902;-68
2022/04/25 09:32:31;;;;;;;;;;;;;;;;;;5051560;28;1016;-69
2022/04/25 09:35:02;;;;;;;;;;;;;;;;;;5035857;28;918;-69
2022/04/25 09:37:40;;;;;;;;;;;;;;;;;;5072756;28;775;-69
2022/04/25 09:40:07;;;;;;;;;;;;;;;;;;5060593;28;1443;-70
2022/04/25 09:42:33;;;;;;;;;;;;;;;;;;5061237;28;1636;-70
2022/04/25 09:45:00;;;;;;;;;;;;;;;;;;5039436;28;1491;-68
2022/04/25 09:47:28;;;;;;;;;;;;;;;;;;5044638;28;1486;-69
2022/04/25 09:49:58;;;;;;;;;;;;;;;;;;5053266;28;1918;-69
2022/04/25 09:52:25;;;;;;;;;;;;;;;;;;5062565;28;1817;-67
2022/04/25 09:54:52;;;;;;;;;;;;;;;;;;5060198;28;1592;-68
2022/04/25 09:57:28;;;;;;;;;;;;;;;;;;5056831;28;1854;-68
2022/04/25 09:59:56;;;;;;;;;;;;;;;;;;5056346;28;1457;-68
2022/04/25 10:02:22;;;;;;;;;;;;;;;;;;5060524;28;1850;-68
2022/04/25 10:04:48;;;;;;;;;;;;;;;;;;5051779;28;1455;-67
2022/04/25 10:07:14;;;;;;;;;;;;;;;;;;5063721;28;1122;-67
2022/04/25 10:09:40;;;;;;;;;;;;;;;;;;5062568;28;1763;-68
2022/04/25 10:12:08;;;;;;;;;;;;;;;;;;5052582;28;1962;-68
2022/04/25 10:14:35;;;;;;;;;;;;;;;;;;5050988;28;2022;-69
2022/04/25 10:17:01;;;;;;;;;;;;;;;;;;5052888;28;1744;-69
2022/04/25 10:19:28;;;;;;;;;;;;;;;;;;5058051;28;1193;-69
2022/04/25 10:21:55;;;;;;;;;;;;;;;;;;5067045;28;1637;-70
2022/04/25 10:24:21;;;;;;;;;;;;;;;;;;5059195;28;1545;-70
2022/04/25 10:26:48;;;;;;;;;;;;;;;;;;5055779;28;1839;-69
2022/04/25 10:29:17;;;;;;;;;;;;;;;;;;5048197;28;1446;-70
2022/04/25 10:31:44;;;;;;;;;;;;;;;;;;5061600;28;1971;-69
2022/04/25 10:34:14;;;;;;;;;;;;;;;;;;5058920;28;1756;-69
2022/04/25 10:36:44;;;;;;;;;;;;;;;;;;5048971;28;1773;-67
2022/04/25 10:39:11;;;;;;;;;;;;;;;;;;5046169;28;1788;-69
2022/04/25 10:44:48;;;;;;;;;;;;;;;;;;5056429;28;1422;-69
2022/04/25 10:47:16;;;;;;;;;;;;;;;;;;5051416;28;1633;-69
2022/04/25 10:49:43;;;;;;;;;;;;;;;;;;5055954;28;1162;-68
2022/04/25 10:52:27;;;;;;;;;;;;;;;;;;5066477;28;1914;-68
2022/04/25 10:55:00;;;;;;;;;;;;;;;;;;5055665;28;1545;-69
2022/04/25 10:57:26;;;;;;;;;;;;;;;;;;5056131;28;1628;-68
2022/04/25 10:59:52;;;;;;;;;;;;;;;;;;5056498;28;1534;-69
2022/04/25 11:02:23;;;;;;;;;;;;;;;;;;5062425;28;1491;-69
2022/04/25 11:05:05;;;;;;;;;;;;;;;;;;5068303;28;1343;-69
2022/04/25 11:07:32;;;;;;;;;;;;;;;;;;5070777;28;1471;-69
2022/04/25 11:09:58;;;;;;;;;;;;;;;;;;5064489;28;1059;-69
2022/04/25 11:12:39;;;;;;;;;;;;;;;;;;5050926;28;1981;-69
2022/04/25 11:15:06;;;;;;;;;;;;;;;;;;5049900;28;1482;-69
2022/04/25 11:17:34;;;;;;;;;;;;;;;;;;5050863;28;913;-69
2022/04/25 11:20:00;;;;;;;;;;;;;;;;;;5050799;28;1056;-69
2022/04/25 11:22:46;;;;;;;;;;;;;;;;;;5050922;28;1072;-69
2022/04/25 11:25:42;;;;;;;;;;;;;;;;;;5047849;28;1795;-69
2022/04/25 11:28:10;;;;;;;;;;;;;;;;;;4982180;28;1411;-69
2022/04/25 11:30:36;;;;;;;;;;;;;;;;;;5039306;28;1984;-69
2022/04/25 11:33:04;;;;;;;;;;;;;;;;;;5067930;28;1501;-68
2022/04/25 11:35:31;;;;;;;;;;;;;;;;;;5050533;28;1055;-67
2022/04/25 11:37:57;;;;;;;;;;;;;;;;;;5050048;28;1056;-68
2022/04/25 11:40:24;;;;;;;;;;;;;;;;;;5050145;28;1020;-68
2022/04/25 11:42:50;;;;;;;;;;;;;;;;;;5050049;28;1409;-68
2022/04/25 11:45:16;;;;;;;;;;;;;;;;;;5049971;28;1415;-67
2022/04/25 11:47:42;;;;;;;;;;;;;;;;;;5049812;28;838;-68
2022/04/25 11:50:11;;;;;;;;;;;;;;;;;;5051164;28;1583;-68
2022/04/25 11:52:44;;;;;;;;;;;;;;;;;;5068162;28;1991;-68
2022/04/25 11:55:10;;;;;;;;;;;;;;;;;;5046172;28;1526;-66
2022/04/25 11:57:38;;;;;;;;;;;;;;;;;;5049275;28;2287;-69
2022/04/25 12:00:12;;;;;;;;;;;;;;;;;;5050797;28;1393;-68
2022/04/25 12:02:38;;;;;;;;;;;;;;;;;;5053877;28;1458;-68
2022/04/25 12:05:07;;;;;;;;;;;;;;;;;;5052351;28;1443;-70
2022/04/25 12:07:35;;;;;;;;;;;;;;;;;;5055592;28;1296;-69
2022/04/25 12:15:35;;;;;;;;;;;;;;;;;;5036735;28;1444;-69
2022/04/25 12:18:14;;;;;;;;;;;;;;;;;;5050524;28;1177;-69
2022/04/25 12:20:42;;;;;;;;;;;;;;;;;;5050048;28;1408;-67
2022/04/25 12:23:10;;;;;;;;;;;;;;;;;;5060006;28;1606;-68
2022/04/25 12:25:40;;;;;;;;;;;;;;;;;;5058854;28;1482;-69
2022/04/25 12:28:07;;;;;;;;;;;;;;;;;;5065080;28;1416;-68
2022/04/25 12:30:44;;;;;;;;;;;;;;;;;;5050363;28;1954;-67
2022/04/25 12:33:11;;;;;;;;;;;;;;;;;;5057165;28;1493;-68
2022/04/25 12:35:37;;;;;;;;;;;;;;;;;;5056588;28;1622;-68
2022/04/25 12:38:04;;;;;;;;;;;;;;;;;;5057990;28;1518;-66
2022/04/25 12:40:32;;;;;;;;;;;;;;;;;;5047822;28;1554;-66
2022/04/25 12:42:58;;;;;;;;;;;;;;;;;;5050862;28;1447;-68
2022/04/25 12:45:24;;;;;;;;;;;;;;;;;;5051308;28;1140;-68
2022/04/25 12:47:54;;;;;;;;;;;;;;;;;;5054365;28;1438;-68
2022/04/25 12:50:36;;;;;;;;;;;;;;;;;;5049190;28;1040;-69
2022/04/25 12:53:02;;;;;;;;;;;;;;;;;;5036179;28;1984;-69
2022/04/25 12:55:43;;;;;;;;;;;;;;;;;;5029421;28;1368;-69
2022/04/25 12:58:09;;;;;;;;;;;;;;;;;;5056141;28;1615;-69
2022/04/25 13:00:39;;;;;;;;;;;;;;;;;;5055769;28;1675;-68
2022/04/25 13:03:05;;;;;;;;;;;;;;;;;;5061429;28;1615;-68
2022/04/25 13:05:32;;;;;;;;;;;;;;;;;;5056646;28;1711;-69
2022/04/25 13:07:58;;;;;;;;;;;;;;;;;;5058340;28;1200;-69
2022/04/25 13:10:25;;;;;;;;;;;;;;;;;;5059907;28;1698;-70
2022/04/25 13:12:54;;;;;;;;;;;;;;;;;;5033360;28;1918;-69
2022/04/25 13:15:21;;;;;;;;;;;;;;;;;;5063187;28;1395;-69
2022/04/25 13:17:48;;;;;;;;;;;;;;;;;;5050287;28;1691;-68
2022/04/25 13:20:15;;;;;;;;;;;;;;;;;;5060691;28;1138;-69
2022/04/25 13:22:42;;;;;;;;;;;;;;;;;;5065006;28;2023;-70
2022/04/25 13:25:09;;;;;;;;;;;;;;;;;;5046063;28;1687;-69
2022/04/25 13:27:36;;;;;;;;;;;;;;;;;;5056217;28;1153;-69
2022/04/25 13:30:05;;;;;;;;;;;;;;;;;;5058364;28;1634;-69
2022/04/25 13:32:31;;;;;;;;;;;;;;;;;;5059229;28;1914;-68
2022/04/25 13:34:57;;;;;;;;;;;;;;;;;;5047761;28;1941;-68
2022/04/25 13:37:23;;;;;;;;;;;;;;;;;;5051568;28;1423;-69
2022/04/25 13:39:49;;;;;;;;;;;;;;;;;;5031369;28;1471;-69
2022/04/25 13:42:16;;;;;;;;;;;;;;;;;;5059790;28;1130;-70
2022/04/25 13:44:43;;;;;;;;;;;;;;;;;;5062313;28;1421;-69
2022/04/25 13:47:10;;;;;;;;;;;;;;;;;;5059801;28;1241;-69
2022/04/25 13:49:37;;;;;;;;;;;;;;;;;;5058693;28;1371;-70
2022/04/25 13:52:04;;;;;;;;;;;;;;;;;;5060436;28;1910;-70
2022/04/25 13:54:30;;;;;;;;;;;;;;;;;;5063789;28;1404;-71
2022/04/25 13:56:57;;;;;;;;;;;;;;;;;;5048874;28;1327;-70
2022/04/25 13:59:23;;;;;;;;;;;;;;;;;;5058208;28;1455;-71
2022/04/25 14:01:50;;;;;;;;;;;;;;;;;;5051980;28;1744;-71
2022/04/25 14:04:18;;;;;;;;;;;;;;;;;;5049144;28;1400;-71
2022/04/25 14:06:44;;;;;;;;;;;;;;;;;;5056625;28;1166;-70
2022/04/25 14:09:11;;;;;;;;;;;;;;;;;;5060067;28;1463;-69
2022/04/25 14:11:37;;;;;;;;;;;;;;;;;;5053059;28;1913;-71
2022/04/25 14:14:04;;;;;;;;;;;;;;;;;;5059636;28;1409;-70
2022/04/25 14:16:31;;;;;;;;;;;;;;;;;;5052356;28;981;-70
2022/04/25 14:18:57;;;;;;;;;;;;;;;;;;5057944;28;1420;-70
2022/04/25 14:21:24;;;;;;;;;;;;;;;;;;5073046;28;1134;-71
2022/04/25 14:23:51;;;;;;;;;;;;;;;;;;5058496;28;1682;-70
2022/04/25 14:26:17;;;;;;;;;;;;;;;;;;5063955;28;1142;-70
2022/04/25 14:28:44;;;;;;;;;;;;;;;;;;5075815;22;3558;-72
2022/04/25 14:31:11;;;;;;;;;;;;;;;;;;5071163;28;1375;-72
2022/04/25 14:33:37;;;;;;;;;;;;;;;;;;5064657;28;1201;-72
2022/04/25 14:36:03;;;;;;;;;;;;;;;;;;5071367;28;1427;-73
2022/04/25 14:38:31;;;;;;;;;;;;;;;;;;5064456;28;1477;-74
2022/04/25 14:40:57;;;;;;;;;;;;;;;;;;5079718;28;1561;-73
2022/04/25 14:43:23;;;;;;;;;;;;;;;;;;5079706;28;1918;-72
2022/04/25 14:45:50;;;;;;;;;;;;;;;;;;5054627;28;1359;-73
2022/04/25 14:48:16;;;;;;;;;;;;;;;;;;5066322;28;1388;-72
2022/04/25 14:56:11;;;;;;;;;;;;;;;;;;5066638;28;1146;-72
2022/04/25 14:58:37;;;;;;;;;;;;;;;;;;5076002;28;1521;-72
2022/04/25 15:01:04;;;;;;;;;;;;;;;;;;5088538;28;1153;-73
2022/04/25 15:03:30;;;;;;;;;;;;;;;;;;5072467;28;1914;-73
2022/04/25 15:05:56;;;;;;;;;;;;;;;;;;5079903;28;1443;-74
2022/04/25 15:08:23;;;;;;;;;;;;;;;;;;5076261;28;1476;-73
2022/04/25 15:10:49;;;;;;;;;;;;;;;;;;5077353;28;1375;-72
2022/04/25 15:13:16;;;;;;;;;;;;;;;;;;5086963;28;1224;-74
2022/04/25 15:15:43;;;;;;;;;;;;;;;;;;5076126;28;1430;-73
2022/04/25 15:18:09;;;;;;;;;;;;;;;;;;5078051;28;1284;-73
2022/04/25 15:20:36;;;;;;;;;;;;;;;;;;5077665;28;1432;-73
2022/04/25 15:23:04;;;;;;;;;;;;;;;;;;5086051;28;1962;-74
2022/04/25 15:25:30;;;;;;;;;;;;;;;;;;5074458;28;1399;-73
2022/04/25 15:28:00;;;;;;;;;;;;;;;;;;5080089;28;1837;-72
2022/04/25 15:30:27;;;;;;;;;;;;;;;;;;5061080;28;1522;-71
2022/04/25 15:32:53;;;;;;;;;;;;;;;;;;5079589;28;1367;-73
2022/04/25 15:35:20;;;;;;;;;;;;;;;;;;5078278;28;1347;-74
2022/04/25 15:37:46;;;;;;;;;;;;;;;;;;5079016;28;1467;-73
2022/04/25 15:40:12;;;;;;;;;;;;;;;;;;5080180;28;1523;-72
2022/04/25 15:42:39;;;;;;;;;;;;;;;;;;5056110;28;1918;-73
2022/04/25 15:45:06;;;;;;;;;;;;;;;;;;5065351;28;1214;-73
2022/04/25 15:47:33;;;;;;;;;;;;;;;;;;5069009;28;1379;-72
2022/04/25 15:49:59;;;;;;;;;;;;;;;;;;5060721;28;1484;-73
2022/04/25 15:52:26;;;;;;;;;;;;;;;;;;5080904;28;1470;-72
2022/04/25 15:57:46;;;;;;;;;;;;;;;;;;5083250;28;1463;-73
2022/04/25 16:00:13;;;;;;;;;;;;;;;;;;5079332;28;1444;-72
2022/04/25 16:02:40;;;;;;;;;;;;;;;;;;5047508;28;1993;-74
2022/04/25 16:05:07;;;;;;;;;;;;;;;;;;5077705;28;1418;-74
2022/04/25 16:07:33;;;;;;;;;;;;;;;;;;5083682;28;1106;-74
2022/04/25 16:09:59;;;;;;;;;;;;;;;;;;5081882;28;1442;-74
2022/04/25 16:12:25;;;;;;;;;;;;;;;;;;5053600;28;1468;-74
2022/04/25 16:14:52;;;;;;;;;;;;;;;;;;5077302;28;1487;-74
2022/04/25 16:17:19;;;;;;;;;;;;;;;;;;5083768;28;1466;-74
2022/04/25 16:19:46;;;;;;;;;;;;;;;;;;5084352;28;1484;-72
2022/04/25 16:22:13;;;;;;;;;;;;;;;;;;5056715;28;1985;-73
2022/04/25 16:24:39;;;;;;;;;;;;;;;;;;5076044;28;1208;-72
2022/04/25 16:27:06;;;;;;;;;;;;;;;;;;5071397;28;1187;-74
2022/04/25 16:29:32;;;;;;;;;;;;;;;;;;5071524;28;1268;-73
2022/04/25 16:31:59;;;;;;;;;;;;;;;;;;5072105;28;640;-73
2022/04/25 16:34:28;;;;;;;;;;;;;;;;;;5071241;28;1107;-73
2022/04/25 16:36:56;;;;;;;;;;;;;;;;;;5071438;28;1064;-75
2022/04/25 16:39:24;;;;;;;;;;;;;;;;;;5071662;28;1360;-73
2022/04/25 16:41:50;;;;;;;;;;;;;;;;;;5071321;28;1914;-73
2022/04/25 16:44:16;;;;;;;;;;;;;;;;;;5071564;28;1075;-73
2022/04/25 16:46:43;;;;;;;;;;;;;;;;;;5052986;28;1472;-73
2022/04/25 16:49:10;;;;;;;;;;;;;;;;;;5071485;28;1567;-73
2022/04/25 16:51:36;;;;;;;;;;;;;;;;;;5078080;28;1447;-73
2022/04/25 16:54:04;;;;;;;;;;;;;;;;;;5087649;28;1202;-73
2022/04/25 16:56:31;;;;;;;;;;;;;;;;;;5070949;28;1358;-74
2022/04/25 16:58:57;;;;;;;;;;;;;;;;;;5076392;28;1488;-74
2022/04/25 17:01:23;;;;;;;;;;;;;;;;;;5082193;28;1110;-72
2022/04/25 17:03:49;;;;;;;;;;;;;;;;;;5081356;28;1965;-73
2022/04/25 17:06:16;;;;;;;;;;;;;;;;;;5071972;28;1338;-73
2022/04/25 17:08:42;;;;;;;;;;;;;;;;;;5082539;28;1446;-74
2022/04/25 17:13:48;;;;;;;;;;;;;;;;;;5150841;27;1894;-73
2022/04/25 17:16:14;;;;;;;;;;;;;;;;;;5094635;28;1142;-72
2022/04/25 17:18:41;;;;;;;;;;;;;;;;;;5094612;28;1468;-73
2022/04/25 17:21:07;;;;;;;;;;;;;;;;;;5107322;28;1106;-72
2022/04/25 17:23:33;;;;;;;;;;;;;;;;;;5103316;28;1579;-73
2022/04/25 17:25:59;;;;;;;;;;;;;;;;;;5096231;28;1086;-75
2022/04/25 17:28:25;;;;;;;;;;;;;;;;;;5102967;28;1486;-72
2022/04/25 17:30:53;;;;;;;;;;;;;;;;;;5106045;28;1130;-74
2022/04/25 17:36:04;;;;;;;;;;;;;;;;;;5106126;28;1093;-74
